createdAt,value
2022-09-16T00:02:05.274Z,98784.59
2022-09-16T00:05:12.746Z,98782.03
2022-09-16T00:08:19.194Z,98782.25
2022-09-16T00:11:25.683Z,98774.16
2022-09-16T00:14:29.763Z,98776.31
2022-09-16T00:17:34.779Z,98778.38
2022-09-16T00:20:38.957Z,98775.81
2022-09-16T00:23:43.374Z,98771.72
2022-09-16T00:26:48.896Z,98772.53
2022-09-16T00:29:53.756Z,98776.53
2022-09-16T00:32:57.816Z,98773.16
2022-09-16T00:36:10.973Z,98781.22
2022-09-16T00:39:15.256Z,98779.09
2022-09-16T00:42:21.956Z,98780.22
2022-09-16T00:45:31.460Z,98772.56
2022-09-16T00:48:36.200Z,98767.81
2022-09-16T00:51:41.299Z,98773.88
2022-09-16T00:54:45.827Z,98765.47
2022-09-16T00:57:52.924Z,98772.88
2022-09-16T01:00:57.700Z,98765.06
2022-09-16T01:04:07.110Z,98774.19
2022-09-16T01:07:12.755Z,98761.34
2022-09-16T01:10:20.497Z,98767.91
2022-09-16T01:13:26.174Z,98773.25
2022-09-16T01:16:33.608Z,98774.41
2022-09-16T01:20:24.096Z,98769.38
2022-09-16T01:24:33.954Z,98767.91
2022-09-16T01:28:13.167Z,98778.19
2022-09-16T01:31:20.714Z,98773.06
2022-09-16T01:34:34.217Z,98782.28
2022-09-16T01:37:46.595Z,98773.06
2022-09-16T01:40:59.169Z,98775.72
2022-09-16T01:44:10.437Z,98773.38
2022-09-16T01:47:22.032Z,98771.63
2022-09-16T01:50:28.883Z,98772.94
2022-09-16T01:53:37.464Z,98773.75
2022-09-16T01:56:45.935Z,98765.16
2022-09-16T01:59:54.049Z,98765.25
2022-09-16T02:03:03.358Z,98777.25
2022-09-16T02:06:14.826Z,98774.88
2022-09-16T02:09:23.184Z,98773.47
2022-09-16T02:12:31.406Z,98766.72
2022-09-16T02:15:36.010Z,98775.00
2022-09-16T02:18:43.803Z,98776.97
2022-09-16T02:21:48.819Z,98782.22
2022-09-16T02:24:53.970Z,98775.94
2022-09-16T02:27:58.915Z,98775.72
2022-09-16T02:31:06.654Z,98770.91
2022-09-16T02:34:16.589Z,98766.50
2022-09-16T02:37:25.206Z,98772.31
2022-09-16T02:40:34.449Z,98775.94
2022-09-16T02:43:38.850Z,98774.59
2022-09-16T02:46:50.172Z,98769.59
2022-09-16T02:50:00.980Z,98772.66
2022-09-16T02:53:13.070Z,98771.63
2022-09-16T02:56:24.333Z,98766.31
2022-09-16T02:59:28.387Z,98766.69
2022-09-16T03:02:34.460Z,98768.34
2022-09-16T03:06:08.258Z,98774.22
2022-09-16T03:09:14.391Z,98777.16
2022-09-16T03:12:46.648Z,98768.97
2022-09-16T03:16:00.505Z,98779.22
2022-09-16T03:19:13.997Z,98776.75
2022-09-16T03:22:32.006Z,98783.81
2022-09-16T03:25:46.335Z,98773.91
2022-09-16T03:29:04.551Z,98771.97
2022-09-16T03:32:17.625Z,98781.06
2022-09-16T03:35:26.638Z,98776.13
2022-09-16T03:38:32.871Z,98780.56
2022-09-16T03:41:37.454Z,98771.97
2022-09-16T03:44:42.872Z,98783.13
2022-09-16T03:47:49.623Z,98775.75
2022-09-16T03:50:53.670Z,98781.28
2022-09-16T03:53:59.235Z,98777.06
2022-09-16T03:57:03.446Z,98783.63
2022-09-16T04:00:10.742Z,98789.78
2022-09-16T04:03:19.207Z,98783.88
2022-09-16T04:06:24.014Z,98782.44
2022-09-16T04:09:30.089Z,98784.56
2022-09-16T04:12:34.514Z,98779.78
2022-09-16T04:15:39.614Z,98776.03
2022-09-16T04:18:43.990Z,98779.22
2022-09-16T04:21:48.176Z,98773.38
2022-09-16T04:24:53.620Z,98790.84
2022-09-16T04:27:57.627Z,98792.22
2022-09-16T04:31:03.332Z,98788.16
2022-09-16T04:34:09.207Z,98794.97
2022-09-16T04:37:13.708Z,98789.66
2022-09-16T04:40:19.753Z,98787.38
2022-09-16T04:43:24.110Z,98789.84
2022-09-16T04:46:30.337Z,98796.78
2022-09-16T04:49:34.600Z,98794.03
2022-09-16T04:52:38.722Z,98803.56
2022-09-16T04:55:44.519Z,98803.81
2022-09-16T04:58:50.334Z,98796.88
2022-09-16T05:01:54.447Z,98800.44
2022-09-16T05:04:58.463Z,98808.41
2022-09-16T05:08:03.154Z,98810.22
2022-09-16T05:11:11.113Z,98797.81
2022-09-16T05:14:17.473Z,98808.56
2022-09-16T05:17:46.607Z,98803.94
2022-09-16T05:20:45.859Z,98807.03
2022-09-16T05:23:50.936Z,98803.47
2022-09-16T05:26:56.522Z,98810.31
2022-09-16T05:30:01.378Z,98810.56
2022-09-16T05:33:05.898Z,98811.59
2022-09-16T05:36:13.589Z,98814.00
2022-09-16T05:39:23.367Z,98811.59
2022-09-16T05:42:30.326Z,98816.44
2022-09-16T05:45:34.697Z,98816.09
2022-09-16T05:48:38.821Z,98817.84
2022-09-16T05:51:43.000Z,98814.06
2022-09-16T05:54:47.323Z,98814.47
2022-09-16T05:57:52.911Z,98821.44
2022-09-16T06:01:00.541Z,98810.16
2022-09-16T06:04:07.442Z,98820.22
2022-09-16T06:07:11.737Z,98813.44
2022-09-16T06:10:16.453Z,98819.19
2022-09-16T06:13:22.306Z,98821.75
2022-09-16T06:16:28.118Z,98832.72
2022-09-16T06:19:32.132Z,98817.13
2022-09-16T06:22:36.678Z,98826.25
2022-09-16T06:25:41.339Z,98836.09
2022-09-16T06:28:47.743Z,98837.03
2022-09-16T06:31:51.745Z,98838.03
2022-09-16T06:34:55.999Z,98836.50
2022-09-16T06:38:00.247Z,98844.72
2022-09-16T06:41:06.996Z,98847.06
2022-09-16T06:44:13.754Z,98846.53
2022-09-16T06:47:18.659Z,98857.13
2022-09-16T06:50:22.783Z,98854.84
2022-09-16T06:53:27.415Z,98850.72
2022-09-16T06:56:31.912Z,98846.53
2022-09-16T06:59:37.501Z,98838.53
2022-09-16T07:02:42.074Z,98841.59
2022-09-16T07:05:56.869Z,98839.78
2022-09-16T07:09:00.919Z,98840.78
2022-09-16T07:12:05.673Z,98843.34
2022-09-16T07:15:12.354Z,98849.38
2022-09-16T07:18:16.571Z,98850.91
2022-09-16T07:21:23.080Z,98854.38
2022-09-16T07:24:27.725Z,98853.47
2022-09-16T07:27:32.341Z,98859.50
2022-09-16T07:30:37.877Z,98857.88
2022-09-16T07:33:44.330Z,98867.00
2022-09-16T07:36:50.302Z,98877.38
2022-09-16T07:39:54.436Z,98878.63
2022-09-16T07:42:59.556Z,98879.53
2022-09-16T07:46:05.314Z,98878.59
2022-09-16T07:49:13.048Z,98878.97
2022-09-16T07:52:17.533Z,98886.66
2022-09-16T07:55:21.623Z,98886.66
2022-09-16T07:58:25.713Z,98897.97
2022-09-16T08:01:31.841Z,98898.84
2022-09-16T08:04:38.647Z,98897.69
2022-09-16T08:07:43.853Z,98891.13
2022-09-16T08:10:55.901Z,98900.13
2022-09-16T08:14:00.981Z,98899.09
2022-09-16T08:17:07.523Z,98899.25
2022-09-16T08:20:12.181Z,98908.72
2022-09-16T08:23:16.449Z,98910.97
2022-09-16T08:26:22.293Z,98914.84
2022-09-16T08:29:27.297Z,98912.28
2022-09-16T08:32:33.127Z,98916.31
2022-09-16T08:35:37.450Z,98917.78
2022-09-16T08:38:42.127Z,98917.91
2022-09-16T08:42:32.435Z,98916.56
2022-09-16T08:45:44.204Z,98929.78
2022-09-16T08:48:57.619Z,98924.59
2022-09-16T08:52:06.226Z,98929.97
2022-09-16T08:55:16.051Z,98937.00
2022-09-16T08:58:22.646Z,98936.59
2022-09-16T09:01:32.657Z,98930.06
2022-09-16T09:04:38.392Z,98941.38
2022-09-16T09:07:55.387Z,98936.81
2022-09-16T09:11:05.043Z,98938.88
2022-09-16T09:14:31.239Z,98941.38
2022-09-16T09:17:49.167Z,98939.34
2022-09-16T09:21:04.526Z,98941.56
2022-09-16T09:24:29.787Z,98942.81
2022-09-16T09:27:43.104Z,98944.13
2022-09-16T09:31:00.434Z,98939.34
2022-09-16T09:34:16.184Z,98949.81
2022-09-16T09:37:42.116Z,98945.97
2022-09-16T09:40:51.069Z,98952.91
2022-09-16T09:43:59.258Z,98949.63
2022-09-16T09:47:11.549Z,98950.44
2022-09-16T09:50:20.376Z,98955.16
2022-09-16T09:53:29.370Z,98951.25
2022-09-16T09:56:36.836Z,98956.50
2022-09-16T09:59:48.465Z,98953.69
2022-09-16T10:02:52.958Z,98957.84
2022-09-16T10:05:57.819Z,98963.31
2022-09-16T10:09:03.377Z,98960.94
2022-09-16T10:12:08.369Z,98956.41
2022-09-16T10:15:24.114Z,98960.44
2022-09-16T10:18:31.213Z,98961.84
2022-09-16T10:21:46.118Z,98956.69
2022-09-16T10:24:57.827Z,98961.38
2022-09-16T10:28:06.036Z,98962.06
2022-09-16T10:31:11.829Z,98970.06
2022-09-16T10:34:22.295Z,98968.63
2022-09-16T10:37:27.851Z,98974.81
2022-09-16T10:40:33.606Z,98968.84
2022-09-16T10:43:40.375Z,98972.13
2022-09-16T10:46:53.338Z,98978.66
2022-09-16T10:50:01.696Z,98975.19
2022-09-16T10:53:27.347Z,98978.84
2022-09-16T10:56:35.661Z,98983.84
2022-09-16T10:59:39.742Z,98980.94
2022-09-16T11:03:30.605Z,98980.00
2022-09-16T11:06:49.442Z,98976.16
2022-09-16T11:10:01.932Z,98980.28
2022-09-16T11:13:27.215Z,98978.88
2022-09-16T11:16:58.346Z,98983.75
2022-09-16T11:20:37.691Z,98972.03
2022-09-16T11:24:03.155Z,98975.59
2022-09-16T11:27:16.018Z,98980.63
2022-09-16T11:30:23.169Z,98981.88
2022-09-16T11:33:34.960Z,98983.78
2022-09-16T11:36:59.919Z,98982.13
2022-09-16T11:40:23.762Z,99010.19
2022-09-16T11:44:09.907Z,99036.56
2022-09-16T11:47:41.069Z,99044.69
2022-09-16T11:50:52.286Z,99038.25
2022-09-16T11:54:14.999Z,99040.69
2022-09-16T11:57:23.112Z,99037.91
2022-09-16T12:00:27.669Z,99040.16
2022-09-16T12:03:39.043Z,99041.09
2022-09-16T12:06:55.568Z,99042.94
2022-09-16T12:10:05.321Z,99033.19
2022-09-16T12:13:15.711Z,99034.53
2022-09-16T12:16:28.163Z,99031.97
2022-09-16T12:19:39.062Z,99033.13
2022-09-16T12:22:48.926Z,99036.25
2022-09-16T12:26:05.698Z,99028.88
2022-09-16T12:29:16.747Z,99044.66
2022-09-16T12:32:35.217Z,99050.22
2022-09-16T12:35:45.484Z,99049.03
2022-09-16T12:38:49.678Z,99051.38
2022-09-16T12:42:23.418Z,99057.06
2022-09-16T12:46:21.565Z,99058.09
2022-09-16T12:50:29.850Z,99061.19
2022-09-16T12:54:09.798Z,99062.09
2022-09-16T12:57:34.286Z,99067.47
2022-09-16T13:00:42.847Z,99078.31
2022-09-16T13:03:50.541Z,99068.03
2022-09-16T13:06:58.495Z,99075.19
2022-09-16T13:10:08.217Z,99065.81
2022-09-16T13:13:21.536Z,99064.63
2022-09-16T13:16:34.772Z,99081.84
2022-09-16T13:19:46.707Z,99080.56
2022-09-16T13:23:03.239Z,99079.22
2022-09-16T13:26:10.306Z,99089.09
2022-09-16T13:29:44.172Z,99091.66
2022-09-16T13:33:04.848Z,99095.06
2022-09-16T13:36:34.062Z,99097.72
2022-09-16T13:39:38.523Z,99111.47
2022-09-16T13:42:45.077Z,99099.63
2022-09-16T13:45:49.314Z,99104.13
2022-09-16T13:48:59.978Z,99112.59
2022-09-16T13:52:12.524Z,99104.75
2022-09-16T13:55:23.541Z,99098.75
2022-09-16T13:58:32.583Z,99111.44
2022-09-16T14:01:59.006Z,99109.16
2022-09-16T14:05:20.078Z,99101.56
2022-09-16T14:08:31.203Z,99099.13
2022-09-16T14:11:40.141Z,99102.63
2022-09-16T14:14:47.704Z,99104.94
2022-09-16T14:17:58.327Z,99108.94
2022-09-16T14:21:04.800Z,99118.31
2022-09-16T14:24:18.597Z,99127.69
2022-09-16T14:27:29.343Z,99127.63
2022-09-16T14:30:34.762Z,99126.78
2022-09-16T14:33:44.690Z,99135.72
2022-09-16T14:36:49.586Z,99140.03
2022-09-16T14:39:56.758Z,99133.59
2022-09-16T14:43:05.248Z,99142.09
2022-09-16T14:46:12.929Z,99126.91
2022-09-16T14:49:18.406Z,99128.22
2022-09-16T14:52:25.038Z,99132.97
2022-09-16T14:55:31.999Z,99135.56
2022-09-16T14:58:37.667Z,99138.91
2022-09-16T15:01:43.622Z,99140.84
2022-09-16T15:04:52.218Z,99148.31
2022-09-16T15:08:13.850Z,99138.22
2022-09-16T15:11:45.950Z,99151.19
2022-09-16T15:14:45.734Z,99153.81
2022-09-16T15:17:58.614Z,99155.25
2022-09-16T15:21:08.635Z,99149.06
2022-09-16T15:24:21.592Z,99153.94
2022-09-16T15:27:29.018Z,99154.31
2022-09-16T15:30:33.696Z,99155.66
2022-09-16T15:33:42.946Z,99161.25
2022-09-16T15:36:48.961Z,99164.66
2022-09-16T15:39:53.128Z,99161.97
2022-09-16T15:43:17.958Z,99162.50
2022-09-16T15:46:24.010Z,99160.03
2022-09-16T15:49:32.548Z,99165.47
2022-09-16T15:52:55.498Z,99171.75
2022-09-16T15:56:04.513Z,99177.28
2022-09-16T15:59:24.260Z,99184.63
2022-09-16T16:02:34.979Z,99185.53
2022-09-16T16:05:52.323Z,99181.63
2022-09-16T16:08:58.168Z,99189.34
2022-09-16T16:12:05.260Z,99190.34
2022-09-16T16:15:10.112Z,99185.22
2022-09-16T16:18:15.827Z,99199.06
2022-09-16T16:21:21.701Z,99203.59
2022-09-16T16:24:26.028Z,99197.13
2022-09-16T16:27:30.058Z,99215.63
2022-09-16T16:30:35.123Z,99215.72
2022-09-16T16:33:43.885Z,99216.03
2022-09-16T16:36:50.166Z,99219.84
2022-09-16T16:39:54.659Z,99220.56
2022-09-16T16:42:58.863Z,99226.53
2022-09-16T16:46:03.392Z,99211.84
2022-09-16T16:49:07.558Z,99208.94
2022-09-16T16:52:15.610Z,99219.66
2022-09-16T16:55:19.927Z,99214.47
2022-09-16T16:58:24.588Z,99217.56
2022-09-16T17:01:31.179Z,99218.03
2022-09-16T17:04:35.289Z,99214.97
2022-09-16T17:07:41.015Z,99216.19
2022-09-16T17:10:46.812Z,99213.13
2022-09-16T17:13:53.219Z,99218.50
2022-09-16T17:16:58.403Z,99214.06
2022-09-16T17:20:03.059Z,99219.09
2022-09-16T17:23:08.643Z,99213.53
2022-09-16T17:26:13.926Z,99223.88
2022-09-16T17:29:18.274Z,99214.16
2022-09-16T17:32:22.403Z,99214.97
2022-09-16T17:35:26.938Z,99217.84
2022-09-16T17:38:32.673Z,99220.59
2022-09-16T17:41:37.093Z,99219.47
2022-09-16T17:44:41.338Z,99220.22
2022-09-16T17:47:46.437Z,99216.72
2022-09-16T17:50:52.255Z,99214.88
2022-09-16T17:53:57.839Z,99217.09
2022-09-16T17:57:02.031Z,99226.16
2022-09-16T18:00:08.034Z,99218.47
2022-09-16T18:03:16.455Z,99218.03
2022-09-16T18:06:25.061Z,99216.59
2022-09-16T18:09:31.797Z,99219.16
2022-09-16T18:12:36.027Z,99222.63
2022-09-16T18:15:40.416Z,99225.19
2022-09-16T18:18:45.597Z,99221.50
2022-09-16T18:21:49.879Z,99220.25
2022-09-16T18:24:55.391Z,99224.91
2022-09-16T18:27:59.733Z,99222.81
2022-09-16T18:31:05.306Z,99216.03
2022-09-16T18:34:12.218Z,99218.69
2022-09-16T18:37:16.548Z,99214.34
2022-09-16T18:40:22.131Z,99221.97
2022-09-16T18:43:26.585Z,99215.56
2022-09-16T18:46:32.742Z,99218.41
2022-09-16T18:49:36.989Z,99228.75
2022-09-16T18:52:41.186Z,99208.25
2022-09-16T18:55:46.762Z,99222.91
2022-09-16T18:59:17.205Z,99216.97
2022-09-16T19:02:16.275Z,99218.00
2022-09-16T19:05:20.609Z,99217.00
2022-09-16T19:08:24.739Z,99213.34
2022-09-16T19:11:30.679Z,99215.91
2022-09-16T19:14:35.619Z,99212.47
2022-09-16T19:17:39.845Z,99204.28
2022-09-16T19:20:45.453Z,99213.19
2022-09-16T19:23:54.893Z,99210.00
2022-09-16T19:27:00.483Z,99209.25
2022-09-16T19:30:04.882Z,99203.91
2022-09-16T19:33:13.149Z,99204.16
2022-09-16T19:36:19.374Z,99215.31
2022-09-16T19:39:23.993Z,99215.22
2022-09-16T19:42:29.530Z,99206.59
2022-09-16T19:45:34.778Z,99214.84
2022-09-16T19:48:41.316Z,99210.00
2022-09-16T19:51:45.874Z,99212.09
2022-09-16T19:54:50.669Z,99218.41
2022-09-16T19:57:56.087Z,99211.44
2022-09-16T20:01:01.294Z,99216.59
2022-09-16T20:04:09.098Z,99214.28
2022-09-16T20:07:17.051Z,99216.72
2022-09-16T20:10:22.549Z,99219.09
2022-09-16T20:13:28.273Z,99216.63
2022-09-16T20:16:36.621Z,99221.84
2022-09-16T20:19:40.958Z,99223.41
2022-09-16T20:22:44.951Z,99223.56
2022-09-16T20:25:57.361Z,99217.31
2022-09-16T20:29:03.649Z,99219.09
2022-09-16T20:32:07.786Z,99210.31
2022-09-16T20:35:12.554Z,99208.66
2022-09-16T20:38:16.721Z,99224.94
2022-09-16T20:41:24.456Z,99226.78
2022-09-16T20:44:30.183Z,99219.09
2022-09-16T20:47:34.179Z,99225.53
2022-09-16T20:50:39.306Z,99223.47
2022-09-16T20:53:44.398Z,99227.34
2022-09-16T20:56:49.622Z,99234.41
2022-09-16T20:59:55.081Z,99236.97
2022-09-16T21:03:00.873Z,99242.56
2022-09-16T21:06:07.335Z,99237.03
2022-09-16T21:09:15.165Z,99240.41
2022-09-16T21:12:19.338Z,99254.53
2022-09-16T21:15:24.833Z,99252.97
2022-09-16T21:18:30.504Z,99249.03
2022-09-16T21:21:34.599Z,99252.50
2022-09-16T21:24:38.917Z,99247.97
2022-09-16T21:27:43.088Z,99251.06
2022-09-16T21:30:49.275Z,99252.53
2022-09-16T21:33:53.532Z,99252.91
2022-09-16T21:36:59.307Z,99245.94
2022-09-16T21:40:04.268Z,99247.22
2022-09-16T21:43:08.769Z,99259.22
2022-09-16T21:46:16.273Z,99256.25
2022-09-16T21:49:25.267Z,99267.81
2022-09-16T21:52:29.468Z,99265.25
2022-09-16T21:55:33.619Z,99266.72
2022-09-16T21:58:37.774Z,99266.81
2022-09-16T22:01:43.449Z,99258.47
2022-09-16T22:04:47.754Z,99260.22
2022-09-16T22:07:51.886Z,99259.47
2022-09-16T22:11:02.190Z,99253.91
2022-09-16T22:14:06.476Z,99264.25
2022-09-16T22:17:13.114Z,99259.78
2022-09-16T22:20:17.591Z,99266.22
2022-09-16T22:23:22.792Z,99263.28
2022-09-16T22:26:28.547Z,99272.59
2022-09-16T22:29:32.817Z,99269.94
2022-09-16T22:32:41.086Z,99275.44
2022-09-16T22:35:45.582Z,99270.97
2022-09-16T22:38:51.094Z,99274.16
2022-09-16T22:41:55.495Z,99275.63
2022-09-16T22:44:59.790Z,99273.53
2022-09-16T22:48:06.258Z,99270.84
2022-09-16T22:51:13.239Z,99271.66
2022-09-16T22:54:18.194Z,99270.41
2022-09-16T22:57:22.347Z,99271.75
2022-09-16T23:00:26.445Z,99273.16
2022-09-16T23:03:32.387Z,99270.59
2022-09-16T23:06:38.389Z,99271.84
2022-09-16T23:09:42.589Z,99274.22
2022-09-16T23:12:46.731Z,99267.13
2022-09-16T23:15:53.684Z,99261.72
2022-09-16T23:19:02.715Z,99259.03
2022-09-16T23:22:07.269Z,99264.81
2022-09-16T23:25:13.572Z,99267.47
2022-09-16T23:28:17.731Z,99264.56
2022-09-16T23:31:24.679Z,99254.78
2022-09-16T23:34:30.808Z,99261.66
2022-09-16T23:37:35.026Z,99256.22
2022-09-16T23:40:40.932Z,99264.13
2022-09-16T23:43:45.489Z,99259.97
2022-09-16T23:46:49.832Z,99263.91
2022-09-16T23:49:55.497Z,99266.75
2022-09-16T23:52:59.928Z,99262.06
2022-09-16T23:56:06.639Z,99272.41
2022-09-16T23:59:11.944Z,99260.94
